Time;durP1;ratioP1;P1;durP2;ratioP2;P2;SDS_P1;SDS_P2;PMS_P1;PMS_P2;Temp;Humidity;BMP_temperature;BMP_pressure;BME280_temperature;BME280_humidity;BME280_pressure;Samples;Min_cycle;Max_cycle;Signal;HPM_P1;HPM_P2
2022/07/13 00:01:25;;;;;;;10.18;9.15;;;19.20;99.90;;;;;;4973647;28;20239;-77
2022/07/13 00:03:53;;;;;;;13.23;10.15;;;19.10;99.90;;;;;;4974004;28;20063;-75
2022/07/13 00:06:21;;;;;;;11.18;10.02;;;19.10;99.90;;;;;;4972887;28;20442;-74
2022/07/13 00:08:49;;;;;;;10.48;9.48;;;19.10;99.90;;;;;;4973562;28;20054;-75
2022/07/13 00:11:17;;;;;;;10.38;9.35;;;19.00;99.90;;;;;;4973466;28;20055;-76
2022/07/13 00:13:44;;;;;;;10.05;9.15;;;19.00;99.90;;;;;;4973326;28;20062;-75
2022/07/13 00:16:13;;;;;;;11.15;10.00;;;19.00;99.90;;;;;;4972300;28;20139;-75
2022/07/13 00:18:41;;;;;;;12.18;10.43;;;19.00;99.90;;;;;;4973672;28;20046;-74
2022/07/13 00:21:09;;;;;;;10.52;9.43;;;18.90;99.90;;;;;;4973282;28;20054;-76
2022/07/13 00:23:37;;;;;;;9.85;8.93;;;18.90;99.90;;;;;;4973061;28;20069;-74
2022/07/13 00:26:05;;;;;;;9.38;8.40;;;18.90;99.90;;;;;;4971798;28;20061;-75
2022/07/13 00:28:33;;;;;;;9.55;8.50;;;18.90;99.90;;;;;;4973350;28;20059;-76
2022/07/13 00:31:00;;;;;;;13.52;9.32;;;18.80;99.90;;;;;;4971766;28;20462;-75
2022/07/13 00:33:29;;;;;;;8.95;8.15;;;18.80;99.90;;;;;;4972709;28;20134;-75
2022/07/13 00:35:57;;;;;;;10.00;9.02;;;18.80;99.90;;;;;;4973216;28;20468;-75
2022/07/13 00:38:25;;;;;;;9.55;8.55;;;18.80;99.90;;;;;;4987411;28;20050;-76
2022/07/13 00:40:53;;;;;;;11.43;8.18;;;18.80;99.90;;;;;;4971547;28;20066;-75
2022/07/13 00:43:21;;;;;;;14.23;7.68;;;18.80;99.90;;;;;;4971475;28;20078;-76
2022/07/13 00:45:48;;;;;;;12.27;8.52;;;18.80;99.90;;;;;;4971175;28;20081;-76
2022/07/13 00:48:17;;;;;;;9.80;8.45;;;18.70;99.90;;;;;;4972747;28;20053;-76
2022/07/13 00:50:47;;;;;;;13.40;8.00;;;18.70;99.90;;;;;;4971207;28;20145;-75
2022/07/13 00:53:15;;;;;;;7.75;7.07;;;18.70;99.90;;;;;;4972230;28;20051;-77
2022/07/13 00:55:44;;;;;;;11.10;8.00;;;18.60;99.90;;;;;;4955342;28;20051;-76
2022/07/13 00:58:12;;;;;;;7.85;7.18;;;18.70;99.90;;;;;;4971384;28;20046;-76
2022/07/13 01:00:40;;;;;;;8.20;7.60;;;18.60;99.90;;;;;;4955119;28;20054;-76
2022/07/13 01:03:07;;;;;;;10.68;8.13;;;18.60;99.90;;;;;;4971431;28;20077;-76
2022/07/13 01:05:35;;;;;;;8.40;7.07;;;18.60;99.90;;;;;;4987405;28;20082;-77
2022/07/13 01:08:06;;;;;;;9.52;7.95;;;18.60;99.90;;;;;;4970435;28;20055;-77
2022/07/13 01:10:35;;;;;;;10.45;7.63;;;18.60;99.90;;;;;;4972669;28;20174;-76
2022/07/13 01:13:03;;;;;;;11.75;7.55;;;18.50;99.90;;;;;;4954542;28;20058;-76
2022/07/13 01:15:32;;;;;;;7.97;7.18;;;18.60;99.90;;;;;;4986696;28;20058;-77
2022/07/13 01:18:01;;;;;;;7.97;7.28;;;18.50;99.90;;;;;;4970003;28;20171;-77
2022/07/13 01:20:29;;;;;;;8.40;7.65;;;18.50;99.90;;;;;;4954340;28;20051;-76
2022/07/13 01:22:58;;;;;;;7.97;7.18;;;18.50;99.90;;;;;;4970745;28;20048;-76
2022/07/13 01:25:27;;;;;;;8.38;6.88;;;18.50;99.90;;;;;;4970978;28;20049;-76
2022/07/13 01:27:55;;;;;;;9.68;7.60;;;18.50;99.90;;;;;;4986721;28;20062;-75
2022/07/13 01:30:23;;;;;;;8.00;7.20;;;18.50;99.90;;;;;;4954768;28;20047;-75
2022/07/13 01:32:52;;;;;;;8.15;7.32;;;18.50;99.90;;;;;;4970718;28;20479;-75
2022/07/13 01:35:22;;;;;;;10.23;7.70;;;18.50;99.90;;;;;;4971943;28;20102;-75
2022/07/13 01:37:51;;;;;;;8.38;7.57;;;18.50;99.90;;;;;;4970480;28;20047;-76
2022/07/13 01:40:19;;;;;;;12.50;7.22;;;18.50;99.90;;;;;;4954987;28;20141;-76
2022/07/13 01:42:50;;;;;;;8.65;7.85;;;18.50;99.90;;;;;;4986362;28;20043;-76
2022/07/13 01:45:23;;;;;;;8.65;7.75;;;18.40;99.90;;;;;;4971032;28;20157;-76
2022/07/13 01:47:56;;;;;;;8.73;7.78;;;18.40;99.90;;;;;;4971775;28;20065;-76
2022/07/13 01:50:28;;;;;;;7.97;7.20;;;18.40;99.90;;;;;;4970617;28;20578;-75
2022/07/13 01:52:57;;;;;;;9.02;7.82;;;18.40;99.90;;;;;;4971142;28;20055;-76
2022/07/13 01:55:25;;;;;;;8.63;7.93;;;18.40;99.90;;;;;;4970378;28;20047;-75
2022/07/13 01:57:59;;;;;;;12.65;8.43;;;18.40;99.90;;;;;;4954811;28;20051;-76
2022/07/13 02:00:27;;;;;;;7.68;6.97;;;18.40;99.90;;;;;;4970339;28;20467;-75
2022/07/13 02:02:55;;;;;;;7.88;7.18;;;18.40;99.90;;;;;;4970350;28;20149;-75
2022/07/13 02:05:26;;;;;;;8.27;7.47;;;18.40;99.90;;;;;;4953938;28;20141;-75
2022/07/13 02:07:55;;;;;;;10.10;7.00;;;18.40;99.90;;;;;;4969967;28;20524;-75
2022/07/13 02:10:34;;;;;;;10.30;7.00;;;18.40;99.90;;;;;;4953945;28;20046;-75
2022/07/13 02:13:04;;;;;;;12.35;7.20;;;18.40;99.90;;;;;;4986508;28;20061;-75
2022/07/13 02:15:33;;;;;;;7.55;6.90;;;18.40;99.90;;;;;;4970024;28;20050;-75
2022/07/13 02:18:01;;;;;;;8.55;7.53;;;18.40;99.90;;;;;;4971109;28;20081;-76
2022/07/13 02:20:29;;;;;;;7.57;6.88;;;18.40;99.90;;;;;;4954248;28;20054;-75
2022/07/13 02:22:57;;;;;;;10.43;7.85;;;18.40;99.90;;;;;;4971387;28;20117;-76
2022/07/13 02:25:24;;;;;;;9.48;7.28;;;18.40;99.90;;;;;;4986581;28;20082;-76
2022/07/13 02:27:52;;;;;;;15.45;6.95;;;18.30;99.90;;;;;;4970168;28;20077;-76
2022/07/13 02:30:22;;;;;;;7.45;6.85;;;18.30;99.90;;;;;;4973381;28;20061;-76
2022/07/13 02:32:49;;;;;;;7.50;6.75;;;18.30;99.90;;;;;;4990106;28;20108;-76
2022/07/13 02:35:18;;;;;;;8.00;7.22;;;18.30;99.90;;;;;;4975468;28;20054;-77
2022/07/13 02:37:45;;;;;;;8.20;6.93;;;18.30;99.90;;;;;;4990144;28;20061;-75
2022/07/13 02:40:13;;;;;;;8.05;7.05;;;18.40;99.90;;;;;;4973971;28;20102;-75
2022/07/13 02:42:41;;;;;;;8.60;7.68;;;18.30;99.90;;;;;;4973928;28;20046;-77
2022/07/13 02:45:10;;;;;;;11.23;7.15;;;18.40;99.90;;;;;;4973603;28;20079;-76
2022/07/13 02:47:39;;;;;;;8.93;7.03;;;18.40;99.90;;;;;;4975134;28;20085;-77
2022/07/13 02:50:08;;;;;;;7.38;6.70;;;18.30;99.90;;;;;;4975003;28;20527;-76
2022/07/13 02:52:38;;;;;;;7.70;6.85;;;18.30;99.90;;;;;;4973777;28;20050;-76
2022/07/13 02:55:07;;;;;;;7.20;6.50;;;18.40;99.90;;;;;;4973636;28;20054;-76
2022/07/13 02:57:36;;;;;;;10.90;6.72;;;18.40;99.90;;;;;;4973589;28;20146;-77
2022/07/13 03:00:07;;;;;;;8.43;6.22;;;18.40;99.90;;;;;;4989528;28;20149;-77
2022/07/13 03:02:35;;;;;;;9.85;6.65;;;18.40;99.90;;;;;;4974715;28;20508;-77
2022/07/13 03:05:08;;;;;;;8.50;6.82;;;18.40;99.90;;;;;;4957279;28;20112;-77
2022/07/13 03:07:36;;;;;;;8.80;5.75;;;18.40;99.90;;;;;;4956937;28;20078;-76
2022/07/13 03:10:05;;;;;;;7.65;6.10;;;18.40;99.90;;;;;;4973156;28;20590;-77
2022/07/13 03:12:34;;;;;;;8.63;6.45;;;18.40;99.90;;;;;;4957250;28;20121;-77
2022/07/13 03:15:03;;;;;;;8.50;6.60;;;18.40;99.90;;;;;;4973225;28;20586;-76
2022/07/13 03:17:32;;;;;;;7.00;5.65;;;18.40;99.90;;;;;;4973053;28;20057;-75
2022/07/13 03:19:59;;;;;;;6.43;5.40;;;18.40;99.90;;;;;;4956672;28;20473;-76
2022/07/13 03:22:29;;;;;;;5.88;5.38;;;18.50;99.90;;;;;;4988926;28;20594;-76
2022/07/13 03:24:56;;;;;;;9.25;5.60;;;18.50;99.90;;;;;;4956719;28;20396;-76
2022/07/13 03:27:24;;;;;;;11.98;5.65;;;18.50;99.90;;;;;;4973215;28;20086;-76
2022/07/13 03:29:53;;;;;;;5.80;5.30;;;18.50;99.90;;;;;;4972886;28;20077;-77
2022/07/13 03:32:21;;;;;;;6.10;5.15;;;18.60;99.90;;;;;;4973164;28;20146;-77
2022/07/13 03:34:49;;;;;;;6.03;4.72;;;18.60;99.90;;;;;;4956459;28;20046;-76
2022/07/13 03:37:21;;;;;;;8.40;5.18;;;18.60;99.90;;;;;;4957239;28;20063;-77
2022/07/13 03:39:52;;;;;;;5.82;5.18;;;18.60;99.90;;;;;;4973191;28;20440;-76
2022/07/13 03:42:21;;;;;;;7.57;5.15;;;18.60;99.90;;;;;;4955942;28;20142;-76
2022/07/13 03:44:50;;;;;;;11.05;4.63;;;18.60;99.90;;;;;;4972203;28;20055;-77
2022/07/13 03:47:19;;;;;;;4.47;4.07;;;18.60;99.90;;;;;;4972241;28;20046;-78
2022/07/13 03:49:47;;;;;;;12.63;9.27;;;18.60;99.90;;;;;;4989159;28;20059;-77
2022/07/13 03:52:15;;;;;;;6.40;5.38;;;18.60;99.90;;;;;;4972020;28;20109;-77
2022/07/13 03:54:42;;;;;;;4.05;3.65;;;18.70;99.90;;;;;;4956178;28;20499;-77
2022/07/13 03:57:12;;;;;;;5.45;3.60;;;18.80;99.90;;;;;;4972629;28;20066;-77
2022/07/13 03:59:40;;;;;;;8.43;4.93;;;18.80;99.90;;;;;;4956427;28;20050;-76
2022/07/13 04:02:08;;;;;;;9.90;4.35;;;18.80;99.90;;;;;;4973092;28;20138;-76
2022/07/13 04:04:36;;;;;;;4.72;3.22;;;18.90;99.90;;;;;;4956570;28;20085;-77
2022/07/13 04:07:04;;;;;;;8.55;3.70;;;18.90;99.90;;;;;;4974081;28;20467;-75
2022/07/13 04:09:33;;;;;;;3.55;3.25;;;19.00;99.90;;;;;;4988319;28;20419;-76
2022/07/13 04:12:01;;;;;;;5.53;3.88;;;19.00;99.90;;;;;;4972110;28;20061;-76
2022/07/13 04:14:30;;;;;;;3.47;3.17;;;19.00;99.90;;;;;;4972366;28;20070;-75
2022/07/13 04:16:59;;;;;;;4.40;3.22;;;19.00;99.90;;;;;;4955700;28;20062;-76
2022/07/13 04:19:28;;;;;;;5.78;3.33;;;19.10;99.90;;;;;;4972394;28;20644;-77
2022/07/13 04:21:57;;;;;;;4.60;3.10;;;19.10;99.90;;;;;;4971753;28;20065;-76
2022/07/13 04:24:27;;;;;;;5.00;3.08;;;19.20;99.90;;;;;;4988771;28;20082;-78
2022/07/13 04:26:55;;;;;;;3.75;3.45;;;19.20;99.90;;;;;;4988322;28;20042;-77
2022/07/13 04:29:24;;;;;;;3.30;3.00;;;19.30;99.90;;;;;;4988659;28;20471;-76
2022/07/13 04:31:54;;;;;;;6.90;3.20;;;19.30;99.90;;;;;;4973935;28;20502;-76
2022/07/13 04:34:22;;;;;;;4.47;3.10;;;19.30;99.90;;;;;;4973145;28;20159;-78
2022/07/13 04:36:51;;;;;;;4.55;3.53;;;19.40;99.90;;;;;;4972652;28;20054;-75
2022/07/13 04:39:20;;;;;;;4.75;3.53;;;19.40;99.90;;;;;;4972101;28;20059;-76
2022/07/13 04:41:48;;;;;;;6.05;3.30;;;19.50;99.90;;;;;;4971587;28;20047;-76
2022/07/13 04:44:17;;;;;;;5.88;3.40;;;19.50;99.90;;;;;;4989155;28;20101;-81
2022/07/13 04:46:45;;;;;;;3.58;3.13;;;19.60;99.90;;;;;;4955822;28;20051;-77
2022/07/13 04:49:19;;;;;;;3.33;2.50;;;19.70;99.90;;;;;;4973258;28;20534;-77
2022/07/13 04:51:47;;;;;;;3.15;2.80;;;19.70;99.90;;;;;;4972307;28;20070;-76
2022/07/13 04:54:17;;;;;;;3.40;2.83;;;19.80;99.90;;;;;;4971431;28;20054;-77
2022/07/13 04:56:45;;;;;;;6.60;2.50;;;19.80;99.90;;;;;;4987362;28;20479;-77
2022/07/13 04:59:14;;;;;;;4.82;2.67;;;19.90;99.90;;;;;;4971502;28;20153;-77
2022/07/13 05:01:43;;;;;;;3.25;2.67;;;20.00;99.90;;;;;;4972327;28;20065;-77
2022/07/13 05:04:11;;;;;;;3.00;2.80;;;20.00;99.90;;;;;;4973220;28;20062;-77
2022/07/13 05:06:40;;;;;;;4.07;2.70;;;20.00;99.90;;;;;;4972441;28;20082;-76
2022/07/13 05:09:08;;;;;;;2.50;2.25;;;20.10;99.90;;;;;;4970584;28;20047;-76
2022/07/13 05:11:36;;;;;;;2.28;2.08;;;20.20;99.90;;;;;;4971023;28;20566;-77
2022/07/13 05:14:03;;;;;;;4.97;2.80;;;20.20;99.90;;;;;;4972127;28;20141;-76
2022/07/13 05:16:31;;;;;;;3.55;2.80;;;20.30;99.90;;;;;;4972100;28;20046;-76
2022/07/13 05:19:01;;;;;;;5.63;2.20;;;20.30;99.90;;;;;;4971909;28;20538;-76
2022/07/13 05:21:34;;;;;;;2.53;2.17;;;20.40;99.90;;;;;;4970689;28;20043;-76
2022/07/13 05:24:04;;;;;;;5.32;2.20;;;20.50;99.90;;;;;;4971263;28;20053;-76
2022/07/13 05:26:32;;;;;;;2.72;2.53;;;20.50;99.90;;;;;;4971977;28;20078;-77
2022/07/13 05:29:02;;;;;;;4.47;3.58;;;20.60;99.90;;;;;;4970956;28;20195;-76
2022/07/13 05:31:31;;;;;;;5.22;2.88;;;20.70;99.90;;;;;;4970471;28;20058;-76
2022/07/13 05:34:00;;;;;;;4.55;3.72;;;20.80;99.90;;;;;;4971777;28;20055;-77
2022/07/13 05:36:33;;;;;;;4.78;2.63;;;20.80;99.90;;;;;;4986946;28;20710;-77
2022/07/13 05:39:03;;;;;;;7.75;2.92;;;21.00;99.90;;;;;;4954435;28;20153;-76
2022/07/13 05:41:32;;;;;;;5.43;2.80;;;21.10;99.90;;;;;;4970440;28;20081;-76
2022/07/13 05:44:00;;;;;;;3.80;2.70;;;21.40;99.90;;;;;;4970854;28;20043;-77
2022/07/13 05:46:29;;;;;;;3.45;2.17;;;21.70;99.90;;;;;;4970162;28;20050;-75
2022/07/13 05:48:56;;;;;;;7.93;3.08;;;22.10;99.90;;;;;;4986387;28;20587;-76
2022/07/13 05:51:25;;;;;;;4.35;2.60;;;22.50;99.90;;;;;;4971684;28;20055;-77
2022/07/13 05:53:52;;;;;;;5.43;2.90;;;22.90;99.90;;;;;;4970433;28;20046;-77
2022/07/13 05:56:22;;;;;;;4.93;2.17;;;23.40;99.90;;;;;;4970398;28;20062;-77
2022/07/13 05:58:50;;;;;;;5.43;2.38;;;23.80;99.90;;;;;;4970273;28;20054;-76
2022/07/13 06:01:18;;;;;;;3.65;2.35;;;24.20;99.90;;;;;;4970342;28;20062;-76
2022/07/13 06:03:45;;;;;;;3.72;2.28;;;24.70;99.90;;;;;;4969938;28;20145;-76
2022/07/13 06:06:13;;;;;;;2.17;1.98;;;24.80;99.90;;;;;;4971031;28;20078;-77
2022/07/13 06:08:41;;;;;;;3.65;2.30;;;25.00;99.90;;;;;;4965347;28;20053;-77
2022/07/13 06:11:09;;;;;;;4.13;2.00;;;25.20;99.90;;;;;;4967609;28;20137;-77
2022/07/13 06:13:38;;;;;;;4.75;2.08;;;25.40;99.90;;;;;;4952168;28;20039;-76
2022/07/13 06:16:07;;;;;;;2.92;1.95;;;25.60;99.90;;;;;;4968241;28;20050;-77
2022/07/13 06:18:35;;;;;;;2.45;2.20;;;25.80;99.90;;;;;;4969820;28;20034;-77
2022/07/13 06:21:03;;;;;;;2.45;2.15;;;26.10;99.90;;;;;;4964412;28;20145;-77
2022/07/13 06:23:30;;;;;;;4.25;1.58;;;26.20;99.90;;;;;;4951975;28;20054;-78
2022/07/13 06:26:00;;;;;;;5.03;1.90;;;26.20;99.90;;;;;;4950921;28;20047;-77
2022/07/13 06:28:28;;;;;;;3.83;2.35;;;26.40;99.90;;;;;;4950442;28;20539;-75
2022/07/13 06:30:58;;;;;;;6.18;1.80;;;26.40;99.90;;;;;;4951577;28;20059;-79
2022/07/13 06:33:26;;;;;;;3.25;1.95;;;26.40;99.90;;;;;;4952525;28;20051;-80
2022/07/13 06:35:54;;;;;;;5.25;1.75;;;26.40;99.90;;;;;;4969866;28;20054;-79
2022/07/13 06:38:21;;;;;;;3.55;1.92;;;26.60;99.90;;;;;;4972106;28;20047;-81
2022/07/13 06:40:49;;;;;;;7.72;1.90;;;27.10;99.90;;;;;;4966486;28;20047;-79
2022/07/13 06:43:17;;;;;;;4.15;1.88;;;27.40;99.90;;;;;;4960364;28;20135;-80
2022/07/13 06:45:45;;;;;;;1.88;1.77;;;27.80;99.80;;;;;;4950473;29;20078;-79
2022/07/13 06:48:14;;;;;;;7.82;1.90;;;28.10;96.80;;;;;;4951921;28;20078;-80
2022/07/13 06:50:42;;;;;;;2.88;1.60;;;28.40;95.10;;;;;;4952412;28;20054;-81
2022/07/13 06:53:10;;;;;;;4.32;1.40;;;28.70;92.20;;;;;;4951201;28;20595;-81
2022/07/13 06:55:38;;;;;;;2.30;1.63;;;28.70;91.30;;;;;;4952715;28;20059;-81
2022/07/13 06:58:06;;;;;;;4.22;1.58;;;28.60;90.00;;;;;;4951266;28;20047;-81
2022/07/13 07:00:33;;;;;;;1.63;1.52;;;28.60;89.90;;;;;;4967337;28;20130;-81
2022/07/13 07:03:01;;;;;;;6.63;1.60;;;28.90;89.60;;;;;;4952594;28;20047;-82
2022/07/13 07:05:30;;;;;;;4.43;1.65;;;29.20;88.60;;;;;;4951882;28;20051;-84
2022/07/13 07:07:59;;;;;;;4.50;1.60;;;29.50;85.80;;;;;;4951942;28;20101;-81
2022/07/13 07:10:30;;;;;;;3.38;2.10;;;29.60;82.50;;;;;;4956254;28;20149;-82
2022/07/13 07:12:58;;;;;;;2.70;1.58;;;29.70;80.90;;;;;;4957087;28;20547;-81
2022/07/13 07:15:26;;;;;;;5.22;1.50;;;30.00;79.40;;;;;;4970102;28;20595;-82
2022/07/13 07:17:54;;;;;;;3.13;1.50;;;30.20;77.10;;;;;;4973303;28;20047;-82
2022/07/13 07:20:22;;;;;;;5.15;1.50;;;30.20;73.30;;;;;;4954656;28;20066;-81
2022/07/13 07:22:52;;;;;;;4.38;1.10;;;30.30;73.50;;;;;;4954301;29;20116;-82
2022/07/13 07:25:20;;;;;;;4.35;2.35;;;30.30;72.60;;;;;;4946175;28;20189;-82
2022/07/13 07:27:48;;;;;;;3.30;1.48;;;30.40;72.00;;;;;;4974147;28;20351;-82
2022/07/13 07:30:16;;;;;;;4.40;1.33;;;30.70;69.40;;;;;;4970583;28;20050;-80
2022/07/13 07:32:44;;;;;;;2.67;1.10;;;30.60;70.40;;;;;;4974460;28;20047;-80
2022/07/13 07:35:12;;;;;;;8.75;2.60;;;30.70;69.10;;;;;;4966507;28;20058;-80
2022/07/13 07:37:40;;;;;;;3.70;1.92;;;30.80;68.70;;;;;;4965017;28;20138;-80
2022/07/13 07:40:11;;;;;;;3.33;1.30;;;30.90;67.60;;;;;;4974008;28;20512;-79
2022/07/13 07:42:39;;;;;;;4.63;1.60;;;31.00;66.90;;;;;;4965481;28;20102;-80
2022/07/13 07:45:09;;;;;;;1.80;1.38;;;31.30;68.50;;;;;;4958254;28;20051;-81
2022/07/13 07:47:37;;;;;;;3.42;2.30;;;31.80;65.70;;;;;;4974385;28;20074;-80
2022/07/13 07:50:08;;;;;;;5.38;2.08;;;31.80;65.00;;;;;;4967135;28;20067;-81
2022/07/13 07:52:36;;;;;;;6.32;1.77;;;31.70;65.90;;;;;;4971512;28;20047;-82
2022/07/13 07:55:04;;;;;;;3.45;1.40;;;32.00;63.40;;;;;;4972864;28;20053;-81
2022/07/13 07:57:46;;;;;;;3.75;1.58;;;32.10;66.30;;;;;;4965705;28;20042;-79
2022/07/13 08:00:15;;;;;;;1.75;1.02;;;32.10;62.40;;;;;;4971675;28;20054;-77
2022/07/13 08:02:43;;;;;;;7.10;1.65;;;31.60;62.50;;;;;;4969832;28;20082;-76
2022/07/13 08:05:12;;;;;;;3.40;1.60;;;31.20;63.30;;;;;;4966940;28;20063;-78
2022/07/13 08:07:44;;;;;;;4.22;2.17;;;30.90;66.40;;;;;;4965932;28;20082;-77
2022/07/13 08:10:13;;;;;;;4.55;1.58;;;31.30;66.20;;;;;;4968170;28;20078;-76
2022/07/13 08:12:43;;;;;;;8.07;2.38;;;31.90;65.20;;;;;;4965774;28;20050;-76
2022/07/13 08:15:11;;;;;;;3.33;1.67;;;32.70;63.50;;;;;;4966751;28;20054;-78
2022/07/13 08:17:39;;;;;;;4.07;1.48;;;33.10;61.40;;;;;;4963388;28;20074;-78
2022/07/13 08:20:11;;;;;;;4.03;1.55;;;33.20;59.70;;;;;;4966560;28;20407;-77
2022/07/13 08:22:39;;;;;;;4.45;1.80;;;33.20;59.40;;;;;;4964003;28;20039;-81
2022/07/13 08:25:07;;;;;;;4.88;2.55;;;32.80;59.90;;;;;;4965867;28;20043;-75
2022/07/13 08:27:35;;;;;;;4.75;1.92;;;32.80;59.70;;;;;;4964686;28;20097;-75
2022/07/13 08:30:06;;;;;;;8.95;3.40;;;33.00;58.80;;;;;;4967017;28;20550;-75
2022/07/13 08:32:34;;;;;;;2.00;1.80;;;33.00;59.70;;;;;;4962762;28;20129;-74
2022/07/13 08:40:33;;;;;;;6.57;1.50;;;34.30;56.70;;;;;;4974607;28;20089;-77
2022/07/13 08:43:01;;;;;;;5.07;1.65;;;34.80;56.10;;;;;;4975835;28;20047;-78
2022/07/13 08:45:31;;;;;;;3.45;1.30;;;34.10;55.30;;;;;;4948464;28;20069;-79
2022/07/13 08:48:00;;;;;;;6.25;1.65;;;33.50;56.10;;;;;;4969218;28;20164;-81
2022/07/13 08:50:33;;;;;;;2.47;1.27;;;33.50;56.90;;;;;;4967529;28;20548;-78
2022/07/13 08:53:01;;;;;;;3.58;1.30;;;33.70;54.50;;;;;;4964589;28;20058;-81
2022/07/13 08:55:30;;;;;;;1.10;0.90;;;33.60;54.90;;;;;;4967241;28;20133;-79
2022/07/13 08:57:58;;;;;;;8.90;1.20;;;33.80;55.30;;;;;;4965744;28;20074;-81
2022/07/13 09:00:27;;;;;;;4.10;1.10;;;34.10;54.40;;;;;;4969255;28;20495;-81
2022/07/13 09:02:58;;;;;;;2.20;0.93;;;34.30;53.80;;;;;;4970943;28;20515;-81
2022/07/13 09:05:27;;;;;;;5.20;0.80;;;34.20;53.50;;;;;;4971492;28;20055;-79
2022/07/13 09:08:07;;;;;;;2.78;1.42;;;34.20;52.40;;;;;;4970925;28;20051;-82
2022/07/13 09:10:53;;;;;;;3.10;0.60;;;34.40;52.00;;;;;;4971230;28;20529;-79
2022/07/13 09:13:36;;;;;;;3.75;0.70;;;35.10;51.10;;;;;;4971309;28;20149;-79
2022/07/13 09:16:15;;;;;;;0.73;0.73;;;35.50;47.20;;;;;;4970256;28;20125;-80
2022/07/13 09:18:45;;;;;;;4.15;0.63;;;35.30;47.70;;;;;;4969876;28;20148;-80
2022/07/13 09:21:14;;;;;;;0.88;0.85;;;35.20;47.60;;;;;;4971253;28;20059;-80
2022/07/13 09:23:42;;;;;;;2.97;0.60;;;35.40;48.30;;;;;;4971696;28;20081;-81
2022/07/13 09:26:11;;;;;;;1.98;0.70;;;35.80;48.20;;;;;;4971514;28;20050;-79
2022/07/13 09:28:46;;;;;;;1.52;0.90;;;35.90;46.90;;;;;;4971476;28;20050;-80
2022/07/13 09:31:15;;;;;;;0.98;0.70;;;35.50;46.70;;;;;;4971018;28;20518;-81
2022/07/13 09:33:47;;;;;;;2.63;0.50;;;35.20;47.20;;;;;;4971340;28;20058;-82
2022/07/13 09:36:16;;;;;;;4.00;0.90;;;34.90;48.60;;;;;;4971337;28;20113;-79
2022/07/13 09:38:46;;;;;;;5.28;0.65;;;35.40;47.30;;;;;;4970094;28;20086;-80
2022/07/13 09:41:23;;;;;;;2.15;1.00;;;35.60;48.70;;;;;;4971068;28;20050;-79
2022/07/13 09:47:22;;;;;;;0.60;0.60;;;36.00;47.10;;;;;;4971716;28;20203;-82
2022/07/13 09:49:55;;;;;;;2.83;0.60;;;36.30;46.10;;;;;;4968700;28;20157;-80
2022/07/13 09:52:32;;;;;;;1.23;0.80;;;36.10;46.10;;;;;;4970719;28;20062;-80
2022/07/13 09:55:36;;;;;;;1.40;0.73;;;36.10;46.50;;;;;;4969416;28;20150;-80
2022/07/13 09:59:33;;;;;;;1.80;0.82;;;35.90;46.80;;;;;;4910098;29;20059;-81
2022/07/13 10:09:25;;;;;;;3.63;1.02;;;36.60;45.40;;;;;;4988699;28;20585;-81
2022/07/13 10:11:53;;;;;;;0.82;0.82;;;35.80;46.20;;;;;;4990721;28;20459;-81
2022/07/13 10:14:21;;;;;;;0.77;0.68;;;35.80;46.40;;;;;;4989568;28;20046;-80
2022/07/13 10:16:52;;;;;;;3.03;0.70;;;35.60;45.60;;;;;;4990579;28;20061;-80
2022/07/13 10:19:20;;;;;;;1.50;0.82;;;35.50;45.80;;;;;;4990178;28;20062;-79
2022/07/13 10:22:06;;;;;;;0.60;0.60;;;35.60;46.10;;;;;;4990675;28;20068;-82
2022/07/13 10:24:35;;;;;;;4.80;0.70;;;35.60;46.50;;;;;;4990669;28;20092;-82
2022/07/13 10:27:25;;;;;;;1.48;0.80;;;36.30;45.50;;;;;;4991685;28;20538;-82
2022/07/13 10:29:55;;;;;;;2.90;0.65;;;36.60;44.80;;;;;;4990331;28;20042;-81
2022/07/13 10:32:25;;;;;;;1.83;0.60;;;36.50;45.40;;;;;;4991808;28;20391;-82
2022/07/13 10:34:58;;;;;;;4.90;1.00;;;36.60;45.40;;;;;;4992168;28;20054;-80
2022/07/13 10:37:27;;;;;;;1.85;0.82;;;36.70;47.10;;;;;;4990004;28;20511;-80
2022/07/13 10:40:13;;;;;;;3.40;0.80;;;37.10;45.70;;;;;;4990772;28;20050;-80
2022/07/13 10:43:19;;;;;;;2.55;0.73;;;37.50;44.20;;;;;;4990713;28;20133;-80
2022/07/13 10:45:51;;;;;;;2.85;0.80;;;37.40;43.80;;;;;;4973114;28;20042;-81
2022/07/13 10:48:43;;;;;;;1.40;0.55;;;37.40;44.40;;;;;;4990722;28;20064;-80
2022/07/13 10:51:22;;;;;;;5.63;1.25;;;37.40;43.90;;;;;;4993430;28;20141;-79
2022/07/13 10:54:13;;;;;;;2.47;0.70;;;37.40;43.30;;;;;;4995135;28;20058;-81
2022/07/13 10:57:19;;;;;;;2.37;0.70;;;37.50;43.50;;;;;;4995903;28;20113;-80
2022/07/13 10:59:49;;;;;;;1.65;1.08;;;37.10;43.90;;;;;;4995618;28;20422;-81
2022/07/13 11:02:47;;;;;;;2.53;0.85;;;37.30;43.70;;;;;;4997594;28;20061;-82
2022/07/13 11:05:17;;;;;;;1.50;0.60;;;37.20;43.40;;;;;;4994599;28;20058;-81
2022/07/13 11:07:53;;;;;;;3.05;1.00;;;37.10;44.50;;;;;;4993253;28;20058;-79
2022/07/13 11:10:30;;;;;;;2.83;0.60;;;37.50;44.60;;;;;;4976325;28;20052;-85
2022/07/13 11:13:02;;;;;;;2.40;2.05;;;37.60;43.60;;;;;;4993084;28;20086;-79
2022/07/13 11:15:45;;;;;;;2.55;0.82;;;37.90;44.30;;;;;;4989128;28;20047;-81
2022/07/13 11:18:31;;;;;;;1.80;1.70;;;38.10;42.90;;;;;;4995348;28;20157;-82
2022/07/13 11:21:01;;;;;;;2.85;1.10;;;38.50;43.10;;;;;;4976935;28;20101;-80
2022/07/13 11:26:46;;;;;;;0.50;0.50;;;38.10;42.10;;;;;;4985092;28;20102;-82
2022/07/13 11:29:22;;;;;;;0.98;0.60;;;38.40;42.20;;;;;;4987535;28;20532;-78
2022/07/13 11:31:55;;;;;;;2.15;0.63;;;37.90;42.70;;;;;;5008084;28;20053;-80
2022/07/13 11:34:24;;;;;;;6.38;1.08;;;38.00;42.90;;;;;;4993106;28;20106;-81
2022/07/13 11:36:54;;;;;;;2.83;1.00;;;38.30;43.40;;;;;;4976291;28;20046;-82
2022/07/13 11:39:27;;;;;;;0.93;0.90;;;38.60;42.00;;;;;;4976024;28;20109;-80
2022/07/13 11:41:59;;;;;;;2.38;0.90;;;37.90;42.20;;;;;;4994736;28;20147;-81
2022/07/13 11:44:29;;;;;;;4.18;0.93;;;37.20;42.90;;;;;;4965983;28;20444;-82
2022/07/13 11:47:00;;;;;;;6.82;0.95;;;37.90;41.40;;;;;;4985045;28;20137;-80
2022/07/13 11:49:28;;;;;;;4.25;1.08;;;38.20;40.70;;;;;;4993965;28;20066;-80
2022/07/13 11:51:56;;;;;;;0.68;0.50;;;38.10;40.90;;;;;;4990473;28;20484;-80
2022/07/13 11:54:25;;;;;;;2.47;0.70;;;38.50;40.00;;;;;;4990857;28;20054;-80
2022/07/13 11:56:56;;;;;;;3.72;0.60;;;38.50;39.70;;;;;;4963193;28;20082;-81
2022/07/13 11:59:38;;;;;;;0.60;0.60;;;38.10;40.10;;;;;;4984452;28;20055;-81
2022/07/13 12:02:08;;;;;;;2.88;0.85;;;38.40;39.70;;;;;;4985132;28;20054;-81
2022/07/13 12:04:39;;;;;;;1.95;0.70;;;38.70;39.90;;;;;;4987489;28;20058;-81
2022/07/13 12:07:14;;;;;;;2.38;0.75;;;39.00;39.80;;;;;;4984400;28;20050;-82
2022/07/13 12:09:55;;;;;;;1.13;0.80;;;39.30;40.90;;;;;;4966342;28;20609;-80
2022/07/13 12:12:28;;;;;;;1.95;0.57;;;39.40;39.90;;;;;;4984301;28;20053;-79
2022/07/13 12:14:58;;;;;;;1.52;1.00;;;39.00;40.40;;;;;;4984749;28;20059;-80
2022/07/13 12:17:28;;;;;;;3.05;0.88;;;38.50;41.00;;;;;;4986960;28;20057;-78
2022/07/13 12:20:11;;;;;;;1.20;0.65;;;38.70;40.70;;;;;;4986065;28;20137;-81
2022/07/13 12:22:39;;;;;;;5.35;1.00;;;38.90;40.90;;;;;;4987259;28;20053;-80
2022/07/13 12:25:08;;;;;;;2.17;0.90;;;38.70;40.30;;;;;;4984911;28;20541;-79
2022/07/13 12:27:37;;;;;;;1.63;0.60;;;38.70;40.10;;;;;;4978980;28;20060;-83
2022/07/13 12:30:10;;;;;;;1.13;0.65;;;38.20;40.10;;;;;;4976037;28;20887;-79
2022/07/13 12:32:56;;;;;;;2.90;0.68;;;38.20;40.20;;;;;;4988791;28;20054;-81
2022/07/13 12:35:27;;;;;;;6.45;0.88;;;38.40;40.10;;;;;;4986911;28;20141;-83
2022/07/13 12:37:58;;;;;;;3.13;2.03;;;38.40;41.20;;;;;;4972271;28;20479;-82
2022/07/13 12:40:40;;;;;;;2.40;1.40;;;38.50;40.00;;;;;;4984759;28;20514;-82
2022/07/13 12:43:19;;;;;;;1.92;0.57;;;39.00;39.90;;;;;;4990274;28;20050;-82
2022/07/13 12:45:49;;;;;;;3.70;0.70;;;39.30;39.40;;;;;;4969806;28;20049;-81
2022/07/13 12:48:19;;;;;;;0.60;0.60;;;39.30;39.90;;;;;;4990102;28;20492;-81
2022/07/13 12:51:01;;;;;;;4.13;1.25;;;39.50;39.40;;;;;;4987514;28;20050;-82
2022/07/13 12:53:48;;;;;;;1.90;1.02;;;39.70;39.70;;;;;;4989094;28;20042;-81
2022/07/13 12:56:16;;;;;;;1.45;0.80;;;40.30;40.10;;;;;;4950995;28;20077;-81
2022/07/13 12:58:48;;;;;;;1.75;1.13;;;40.80;38.30;;;;;;4989137;28;20050;-81
2022/07/13 13:01:28;;;;;;;1.27;0.60;;;40.60;38.90;;;;;;4986163;28;20463;-82
2022/07/13 13:03:56;;;;;;;4.95;0.80;;;40.40;38.60;;;;;;4969503;28;20055;-82
2022/07/13 13:06:24;;;;;;;3.83;1.00;;;39.90;38.50;;;;;;4950954;28;20053;-82
2022/07/13 13:09:03;;;;;;;3.72;0.70;;;39.50;38.70;;;;;;4985038;28;20105;-80
2022/07/13 13:11:31;;;;;;;1.08;0.90;;;38.60;39.50;;;;;;4982525;28;20061;-81
2022/07/13 13:14:00;;;;;;;2.58;1.00;;;37.50;40.30;;;;;;4952994;28;20054;-81
2022/07/13 13:16:28;;;;;;;1.17;0.80;;;36.20;42.20;;;;;;4985805;28;20054;-82
2022/07/13 13:18:56;;;;;;;2.03;0.90;;;36.60;42.00;;;;;;4983990;28;20053;-80
2022/07/13 13:21:24;;;;;;;1.60;1.05;;;37.20;41.50;;;;;;4965806;28;20057;-81
2022/07/13 13:23:52;;;;;;;0.80;0.80;;;38.20;41.40;;;;;;4963710;28;20050;-82